sensor_id;sensor_type;location;lat;lon;timestamp;temperature;humidity
15930;DHT22;8064;51.142;4.780;2023-05-10T00:02:07;14.60;99.90
15930;DHT22;8064;51.142;4.780;2023-05-10T00:04:33;14.60;99.90
15930;DHT22;8064;51.142;4.780;2023-05-10T00:06:59;14.60;99.90
15930;DHT22;8064;51.142;4.780;2023-05-10T00:09:25;14.60;99.90
15930;DHT22;8064;51.142;4.780;2023-05-10T00:11:50;14.50;99.90
15930;DHT22;8064;51.142;4.780;2023-05-10T00:14:17;14.50;99.90
15930;DHT22;8064;51.142;4.780;2023-05-10T00:16:42;14.50;99.90
15930;DHT22;8064;51.142;4.780;2023-05-10T00:19:08;14.50;99.90
15930;DHT22;8064;51.142;4.780;2023-05-10T00:21:34;14.40;99.90
15930;DHT22;8064;51.142;4.780;2023-05-10T00:24:00;14.40;99.90
15930;DHT22;8064;51.142;4.780;2023-05-10T00:26:26;14.40;99.90
15930;DHT22;8064;51.142;4.780;2023-05-10T00:28:51;14.40;99.90
15930;DHT22;8064;51.142;4.780;2023-05-10T00:31:17;14.20;99.90
15930;DHT22;8064;51.142;4.780;2023-05-10T00:33:43;14.40;99.90
15930;DHT22;8064;51.142;4.780;2023-05-10T00:36:09;14.30;99.90
15930;DHT22;8064;51.142;4.780;2023-05-10T00:38:34;14.30;99.90
15930;DHT22;8064;51.142;4.780;2023-05-10T00:41:00;14.30;99.90
15930;DHT22;8064;51.142;4.780;2023-05-10T00:43:26;14.30;99.90
15930;DHT22;8064;51.142;4.780;2023-05-10T00:45:52;14.30;99.90
15930;DHT22;8064;51.142;4.780;2023-05-10T00:48:18;14.30;99.90
15930;DHT22;8064;51.142;4.780;2023-05-10T00:50:44;14.30;99.90
15930;DHT22;8064;51.142;4.780;2023-05-10T00:53:10;14.30;99.90
15930;DHT22;8064;51.142;4.780;2023-05-10T00:55:37;14.30;99.90
15930;DHT22;8064;51.142;4.780;2023-05-10T00:58:03;14.30;99.90
15930;DHT22;8064;51.142;4.780;2023-05-10T01:00:30;14.30;99.90
15930;DHT22;8064;51.142;4.780;2023-05-10T01:02:57;14.30;99.90
15930;DHT22;8064;51.142;4.780;2023-05-10T01:05:23;14.30;99.90
15930;DHT22;8064;51.142;4.780;2023-05-10T01:07:49;14.30;99.90
15930;DHT22;8064;51.142;4.780;2023-05-10T01:10:15;14.30;99.90
15930;DHT22;8064;51.142;4.780;2023-05-10T01:12:43;14.20;99.90
15930;DHT22;8064;51.142;4.780;2023-05-10T01:15:10;14.20;99.90
15930;DHT22;8064;51.142;4.780;2023-05-10T01:17:38;14.20;99.90
15930;DHT22;8064;51.142;4.780;2023-05-10T01:20:05;14.20;99.90
15930;DHT22;8064;51.142;4.780;2023-05-10T01:31:05;14.30;99.90
15930;DHT22;8064;51.142;4.780;2023-05-10T01:36:35;14.20;99.90
15930;DHT22;8064;51.142;4.780;2023-05-10T01:39:24;14.20;99.90
15930;DHT22;8064;51.142;4.780;2023-05-10T01:41:57;14.30;99.90
15930;DHT22;8064;51.142;4.780;2023-05-10T01:44:31;14.20;99.90
15930;DHT22;8064;51.142;4.780;2023-05-10T01:47:10;14.30;99.90
15930;DHT22;8064;51.142;4.780;2023-05-10T01:49:55;14.20;99.90
15930;DHT22;8064;51.142;4.780;2023-05-10T01:52:28;14.20;99.90
15930;DHT22;8064;51.142;4.780;2023-05-10T01:55:00;14.20;99.90
15930;DHT22;8064;51.142;4.780;2023-05-10T01:57:32;14.20;99.90
15930;DHT22;8064;51.142;4.780;2023-05-10T02:00:00;14.20;99.90
15930;DHT22;8064;51.142;4.780;2023-05-10T02:02:27;14.20;99.90
15930;DHT22;8064;51.142;4.780;2023-05-10T02:04:55;14.20;99.90
15930;DHT22;8064;51.142;4.780;2023-05-10T02:07:22;14.20;99.90
15930;DHT22;8064;51.142;4.780;2023-05-10T02:09:49;14.20;99.90
15930;DHT22;8064;51.142;4.780;2023-05-10T02:12:16;14.20;99.90
15930;DHT22;8064;51.142;4.780;2023-05-10T02:14:43;14.20;99.90
15930;DHT22;8064;51.142;4.780;2023-05-10T02:17:11;14.20;99.90
15930;DHT22;8064;51.142;4.780;2023-05-10T02:19:40;14.20;99.90
15930;DHT22;8064;51.142;4.780;2023-05-10T02:22:08;14.20;99.90
15930;DHT22;8064;51.142;4.780;2023-05-10T02:24:36;14.10;99.90
15930;DHT22;8064;51.142;4.780;2023-05-10T02:27:03;14.10;99.90
15930;DHT22;8064;51.142;4.780;2023-05-10T02:29:31;14.10;99.90
15930;DHT22;8064;51.142;4.780;2023-05-10T02:31:58;14.10;99.90
15930;DHT22;8064;51.142;4.780;2023-05-10T02:34:26;14.10;99.90
15930;DHT22;8064;51.142;4.780;2023-05-10T02:36:53;14.10;99.90
15930;DHT22;8064;51.142;4.780;2023-05-10T02:39:21;14.10;99.90
15930;DHT22;8064;51.142;4.780;2023-05-10T02:41:49;14.10;99.90
15930;DHT22;8064;51.142;4.780;2023-05-10T02:44:18;14.10;99.90
15930;DHT22;8064;51.142;4.780;2023-05-10T02:46:45;14.10;99.90
15930;DHT22;8064;51.142;4.780;2023-05-10T02:49:11;14.10;99.90
15930;DHT22;8064;51.142;4.780;2023-05-10T02:51:42;14.10;99.90
15930;DHT22;8064;51.142;4.780;2023-05-10T02:54:29;14.10;99.90
15930;DHT22;8064;51.142;4.780;2023-05-10T02:56:58;14.10;99.90
15930;DHT22;8064;51.142;4.780;2023-05-10T02:59:26;14.10;99.90
15930;DHT22;8064;51.142;4.780;2023-05-10T03:01:52;14.10;99.90
15930;DHT22;8064;51.142;4.780;2023-05-10T03:04:18;14.10;99.90
15930;DHT22;8064;51.142;4.780;2023-05-10T03:06:44;14.10;99.90
15930;DHT22;8064;51.142;4.780;2023-05-10T03:09:11;14.10;99.90
15930;DHT22;8064;51.142;4.780;2023-05-10T03:14:13;14.10;99.90
15930;DHT22;8064;51.142;4.780;2023-05-10T03:16:47;14.10;99.90
15930;DHT22;8064;51.142;4.780;2023-05-10T03:19:22;14.10;99.90
15930;DHT22;8064;51.142;4.780;2023-05-10T03:21:52;14.10;99.90
15930;DHT22;8064;51.142;4.780;2023-05-10T03:24:22;14.10;99.90
15930;DHT22;8064;51.142;4.780;2023-05-10T03:26:49;14.10;99.90
15930;DHT22;8064;51.142;4.780;2023-05-10T03:29:17;14.10;99.90
15930;DHT22;8064;51.142;4.780;2023-05-10T03:31:43;14.10;99.90
15930;DHT22;8064;51.142;4.780;2023-05-10T03:34:09;14.10;99.90
15930;DHT22;8064;51.142;4.780;2023-05-10T03:36:35;14.10;99.90
15930;DHT22;8064;51.142;4.780;2023-05-10T03:39:01;14.10;99.90
15930;DHT22;8064;51.142;4.780;2023-05-10T03:41:27;14.10;99.90
15930;DHT22;8064;51.142;4.780;2023-05-10T03:43:53;14.10;99.90
15930;DHT22;8064;51.142;4.780;2023-05-10T03:46:19;14.10;99.90
15930;DHT22;8064;51.142;4.780;2023-05-10T03:48:45;14.10;99.90
15930;DHT22;8064;51.142;4.780;2023-05-10T03:51:11;14.10;99.90
15930;DHT22;8064;51.142;4.780;2023-05-10T03:53:36;14.10;99.90
15930;DHT22;8064;51.142;4.780;2023-05-10T03:56:02;14.10;99.90
15930;DHT22;8064;51.142;4.780;2023-05-10T03:58:28;14.10;99.90
15930;DHT22;8064;51.142;4.780;2023-05-10T04:00:54;14.10;99.90
15930;DHT22;8064;51.142;4.780;2023-05-10T04:03:20;14.10;99.90
15930;DHT22;8064;51.142;4.780;2023-05-10T04:05:46;14.10;99.90
15930;DHT22;8064;51.142;4.780;2023-05-10T04:08:12;14.10;99.90
15930;DHT22;8064;51.142;4.780;2023-05-10T04:10:38;14.10;99.90
15930;DHT22;8064;51.142;4.780;2023-05-10T04:13:03;14.10;99.90
15930;DHT22;8064;51.142;4.780;2023-05-10T04:15:29;14.00;99.90
15930;DHT22;8064;51.142;4.780;2023-05-10T04:17:55;14.00;99.90
15930;DHT22;8064;51.142;4.780;2023-05-10T04:20:20;14.00;99.90
15930;DHT22;8064;51.142;4.780;2023-05-10T04:22:46;14.00;99.90
15930;DHT22;8064;51.142;4.780;2023-05-10T04:25:12;14.00;99.90
15930;DHT22;8064;51.142;4.780;2023-05-10T04:27:38;14.00;99.90
15930;DHT22;8064;51.142;4.780;2023-05-10T04:30:04;13.90;99.90
15930;DHT22;8064;51.142;4.780;2023-05-10T04:32:30;13.90;99.90
15930;DHT22;8064;51.142;4.780;2023-05-10T04:34:56;13.90;99.90
15930;DHT22;8064;51.142;4.780;2023-05-10T04:37:22;13.90;99.90
15930;DHT22;8064;51.142;4.780;2023-05-10T04:39:48;13.90;99.90
15930;DHT22;8064;51.142;4.780;2023-05-10T04:42:14;14.00;99.90
15930;DHT22;8064;51.142;4.780;2023-05-10T04:44:40;13.90;99.90
15930;DHT22;8064;51.142;4.780;2023-05-10T04:47:06;13.90;99.90
15930;DHT22;8064;51.142;4.780;2023-05-10T04:49:32;13.90;99.90
15930;DHT22;8064;51.142;4.780;2023-05-10T04:51:58;14.00;99.90
15930;DHT22;8064;51.142;4.780;2023-05-10T04:54:23;14.00;99.90
15930;DHT22;8064;51.142;4.780;2023-05-10T04:56:49;14.00;99.90
15930;DHT22;8064;51.142;4.780;2023-05-10T04:59:15;14.00;99.90
15930;DHT22;8064;51.142;4.780;2023-05-10T05:01:41;14.00;99.90
15930;DHT22;8064;51.142;4.780;2023-05-10T05:04:07;14.10;99.90
15930;DHT22;8064;51.142;4.780;2023-05-10T05:06:32;14.10;99.90
15930;DHT22;8064;51.142;4.780;2023-05-10T05:08:58;14.10;99.90
15930;DHT22;8064;51.142;4.780;2023-05-10T05:11:24;14.20;99.90
15930;DHT22;8064;51.142;4.780;2023-05-10T05:13:51;14.30;99.90
15930;DHT22;8064;51.142;4.780;2023-05-10T05:16:16;14.30;99.90
15930;DHT22;8064;51.142;4.780;2023-05-10T05:18:42;14.30;99.90
15930;DHT22;8064;51.142;4.780;2023-05-10T05:21:27;14.30;99.90
15930;DHT22;8064;51.142;4.780;2023-05-10T05:23:53;14.40;99.90
15930;DHT22;8064;51.142;4.780;2023-05-10T05:26:18;14.40;99.90
15930;DHT22;8064;51.142;4.780;2023-05-10T05:28:44;14.40;99.90
15930;DHT22;8064;51.142;4.780;2023-05-10T05:31:10;14.40;99.90
15930;DHT22;8064;51.142;4.780;2023-05-10T05:33:36;14.50;99.90
15930;DHT22;8064;51.142;4.780;2023-05-10T05:36:03;14.50;99.90
15930;DHT22;8064;51.142;4.780;2023-05-10T05:38:29;14.60;99.90
15930;DHT22;8064;51.142;4.780;2023-05-10T05:40:55;14.60;99.90
15930;DHT22;8064;51.142;4.780;2023-05-10T05:43:21;14.60;99.90
15930;DHT22;8064;51.142;4.780;2023-05-10T05:45:47;14.70;99.90
15930;DHT22;8064;51.142;4.780;2023-05-10T05:48:13;14.80;99.90
15930;DHT22;8064;51.142;4.780;2023-05-10T05:50:39;14.80;99.90
15930;DHT22;8064;51.142;4.780;2023-05-10T05:53:04;14.90;99.90
15930;DHT22;8064;51.142;4.780;2023-05-10T05:55:30;14.90;99.90
15930;DHT22;8064;51.142;4.780;2023-05-10T05:57:57;14.90;99.90
15930;DHT22;8064;51.142;4.780;2023-05-10T06:00:23;14.90;99.90
15930;DHT22;8064;51.142;4.780;2023-05-10T06:02:49;15.00;99.90
15930;DHT22;8064;51.142;4.780;2023-05-10T06:05:15;15.00;99.90
15930;DHT22;8064;51.142;4.780;2023-05-10T06:07:41;15.00;99.90
15930;DHT22;8064;51.142;4.780;2023-05-10T06:10:08;15.10;99.90
15930;DHT22;8064;51.142;4.780;2023-05-10T06:12:35;15.00;99.90
15930;DHT22;8064;51.142;4.780;2023-05-10T06:15:01;15.00;99.90
15930;DHT22;8064;51.142;4.780;2023-05-10T06:17:27;15.10;99.90
15930;DHT22;8064;51.142;4.780;2023-05-10T06:19:53;15.10;99.90
15930;DHT22;8064;51.142;4.780;2023-05-10T06:22:18;15.10;99.90
15930;DHT22;8064;51.142;4.780;2023-05-10T06:24:44;15.00;99.90
15930;DHT22;8064;51.142;4.780;2023-05-10T06:27:10;15.10;99.90
15930;DHT22;8064;51.142;4.780;2023-05-10T06:29:36;15.10;99.90
15930;DHT22;8064;51.142;4.780;2023-05-10T06:32:01;15.10;99.90
15930;DHT22;8064;51.142;4.780;2023-05-10T06:34:27;15.10;99.90
15930;DHT22;8064;51.142;4.780;2023-05-10T06:36:53;15.10;99.90
15930;DHT22;8064;51.142;4.780;2023-05-10T06:39:19;15.10;99.90
15930;DHT22;8064;51.142;4.780;2023-05-10T06:41:45;15.10;99.90
15930;DHT22;8064;51.142;4.780;2023-05-10T06:44:10;15.20;99.90
15930;DHT22;8064;51.142;4.780;2023-05-10T06:46:36;15.20;99.90
15930;DHT22;8064;51.142;4.780;2023-05-10T06:49:02;15.20;99.90
15930;DHT22;8064;51.142;4.780;2023-05-10T06:51:28;15.20;99.90
15930;DHT22;8064;51.142;4.780;2023-05-10T06:53:54;15.30;99.90
15930;DHT22;8064;51.142;4.780;2023-05-10T06:56:20;15.30;99.90
15930;DHT22;8064;51.142;4.780;2023-05-10T06:58:47;15.30;99.90
15930;DHT22;8064;51.142;4.780;2023-05-10T07:01:14;15.20;99.90
15930;DHT22;8064;51.142;4.780;2023-05-10T07:03:40;15.20;99.90
15930;DHT22;8064;51.142;4.780;2023-05-10T07:06:07;15.20;99.90
15930;DHT22;8064;51.142;4.780;2023-05-10T07:08:34;15.10;99.90
15930;DHT22;8064;51.142;4.780;2023-05-10T07:11:02;15.10;99.90
15930;DHT22;8064;51.142;4.780;2023-05-10T07:13:30;15.10;99.90
15930;DHT22;8064;51.142;4.780;2023-05-10T07:15:56;15.00;99.90
15930;DHT22;8064;51.142;4.780;2023-05-10T07:18:21;15.00;99.90
15930;DHT22;8064;51.142;4.780;2023-05-10T07:20:47;15.00;99.90
15930;DHT22;8064;51.142;4.780;2023-05-10T07:23:13;15.00;99.90
15930;DHT22;8064;51.142;4.780;2023-05-10T07:25:39;15.00;99.90
15930;DHT22;8064;51.142;4.780;2023-05-10T07:28:05;15.00;99.90
15930;DHT22;8064;51.142;4.780;2023-05-10T07:30:31;15.00;99.90
15930;DHT22;8064;51.142;4.780;2023-05-10T07:32:57;15.10;99.90
15930;DHT22;8064;51.142;4.780;2023-05-10T07:35:22;15.10;99.90
15930;DHT22;8064;51.142;4.780;2023-05-10T07:37:48;15.10;99.90
15930;DHT22;8064;51.142;4.780;2023-05-10T07:40:14;15.20;99.90
15930;DHT22;8064;51.142;4.780;2023-05-10T07:42:40;15.30;99.90
15930;DHT22;8064;51.142;4.780;2023-05-10T07:45:06;15.40;99.90
15930;DHT22;8064;51.142;4.780;2023-05-10T07:47:32;15.40;99.90
15930;DHT22;8064;51.142;4.780;2023-05-10T07:49:57;15.50;99.90
15930;DHT22;8064;51.142;4.780;2023-05-10T07:52:23;15.50;99.90
15930;DHT22;8064;51.142;4.780;2023-05-10T07:54:49;15.60;99.90
15930;DHT22;8064;51.142;4.780;2023-05-10T07:57:15;15.60;99.90
15930;DHT22;8064;51.142;4.780;2023-05-10T07:59:43;15.60;99.90
15930;DHT22;8064;51.142;4.780;2023-05-10T08:02:09;15.60;99.90
15930;DHT22;8064;51.142;4.780;2023-05-10T08:04:35;15.60;99.90
15930;DHT22;8064;51.142;4.780;2023-05-10T08:07:01;15.70;99.90
15930;DHT22;8064;51.142;4.780;2023-05-10T08:09:27;15.70;99.90
15930;DHT22;8064;51.142;4.780;2023-05-10T08:11:52;15.60;99.90
15930;DHT22;8064;51.142;4.780;2023-05-10T08:14:18;15.60;99.90
15930;DHT22;8064;51.142;4.780;2023-05-10T08:16:44;15.50;99.90
15930;DHT22;8064;51.142;4.780;2023-05-10T08:19:10;15.50;99.90
15930;DHT22;8064;51.142;4.780;2023-05-10T08:21:35;15.50;99.90
15930;DHT22;8064;51.142;4.780;2023-05-10T08:24:01;15.50;99.90
15930;DHT22;8064;51.142;4.780;2023-05-10T08:26:27;15.50;99.90
15930;DHT22;8064;51.142;4.780;2023-05-10T08:28:53;15.50;99.90
15930;DHT22;8064;51.142;4.780;2023-05-10T08:31:19;15.50;99.90
15930;DHT22;8064;51.142;4.780;2023-05-10T08:33:44;15.50;99.90
15930;DHT22;8064;51.142;4.780;2023-05-10T08:36:10;15.50;99.90
15930;DHT22;8064;51.142;4.780;2023-05-10T08:38:37;15.50;99.90
15930;DHT22;8064;51.142;4.780;2023-05-10T08:41:03;15.60;99.90
15930;DHT22;8064;51.142;4.780;2023-05-10T08:43:31;15.70;99.90
15930;DHT22;8064;51.142;4.780;2023-05-10T08:46:00;15.70;99.90
15930;DHT22;8064;51.142;4.780;2023-05-10T08:48:29;15.80;99.90
15930;DHT22;8064;51.142;4.780;2023-05-10T08:50:58;15.90;99.90
15930;DHT22;8064;51.142;4.780;2023-05-10T08:53:26;16.00;99.90
15930;DHT22;8064;51.142;4.780;2023-05-10T08:55:53;16.20;99.90
15930;DHT22;8064;51.142;4.780;2023-05-10T08:58:19;16.20;99.90
15930;DHT22;8064;51.142;4.780;2023-05-10T09:00:49;16.30;99.90
15930;DHT22;8064;51.142;4.780;2023-05-10T09:03:16;16.30;99.90
15930;DHT22;8064;51.142;4.780;2023-05-10T09:05:43;16.40;99.90
15930;DHT22;8064;51.142;4.780;2023-05-10T09:08:11;16.40;99.90
15930;DHT22;8064;51.142;4.780;2023-05-10T09:10:39;16.40;99.90
15930;DHT22;8064;51.142;4.780;2023-05-10T09:13:06;16.30;99.90
15930;DHT22;8064;51.142;4.780;2023-05-10T09:15:33;16.20;99.90
15930;DHT22;8064;51.142;4.780;2023-05-10T09:17:59;16.20;99.90
15930;DHT22;8064;51.142;4.780;2023-05-10T09:20:27;16.20;99.90
15930;DHT22;8064;51.142;4.780;2023-05-10T09:22:53;16.20;99.90
15930;DHT22;8064;51.142;4.780;2023-05-10T09:25:19;16.30;99.90
15930;DHT22;8064;51.142;4.780;2023-05-10T09:27:46;16.40;99.90
15930;DHT22;8064;51.142;4.780;2023-05-10T09:30:25;16.50;99.90
15930;DHT22;8064;51.142;4.780;2023-05-10T09:32:52;16.70;99.90
15930;DHT22;8064;51.142;4.780;2023-05-10T09:35:19;16.80;99.90
15930;DHT22;8064;51.142;4.780;2023-05-10T09:37:49;16.80;99.90
15930;DHT22;8064;51.142;4.780;2023-05-10T09:40:17;16.90;99.90
15930;DHT22;8064;51.142;4.780;2023-05-10T09:45:34;17.00;99.90
15930;DHT22;8064;51.142;4.780;2023-05-10T09:48:01;16.80;99.90
15930;DHT22;8064;51.142;4.780;2023-05-10T09:50:29;16.80;99.90
15930;DHT22;8064;51.142;4.780;2023-05-10T09:52:57;16.70;99.90
15930;DHT22;8064;51.142;4.780;2023-05-10T09:55:37;16.70;99.90
15930;DHT22;8064;51.142;4.780;2023-05-10T09:58:03;16.70;99.90
15930;DHT22;8064;51.142;4.780;2023-05-10T10:00:36;16.70;99.90
15930;DHT22;8064;51.142;4.780;2023-05-10T10:03:03;16.70;99.90
15930;DHT22;8064;51.142;4.780;2023-05-10T10:05:30;16.80;99.90
15930;DHT22;8064;51.142;4.780;2023-05-10T10:07:58;16.80;99.90
15930;DHT22;8064;51.142;4.780;2023-05-10T10:10:25;16.80;99.90
15930;DHT22;8064;51.142;4.780;2023-05-10T10:12:51;16.80;99.90
15930;DHT22;8064;51.142;4.780;2023-05-10T10:15:17;16.80;99.90
15930;DHT22;8064;51.142;4.780;2023-05-10T10:17:43;16.60;99.90
15930;DHT22;8064;51.142;4.780;2023-05-10T10:20:09;16.50;99.90
15930;DHT22;8064;51.142;4.780;2023-05-10T10:22:36;16.30;99.90
15930;DHT22;8064;51.142;4.780;2023-05-10T10:25:04;16.20;99.90
15930;DHT22;8064;51.142;4.780;2023-05-10T10:28:11;16.10;99.90
15930;DHT22;8064;51.142;4.780;2023-05-10T10:36:16;15.80;99.90
15930;DHT22;8064;51.142;4.780;2023-05-10T10:39:00;15.80;99.90
15930;DHT22;8064;51.142;4.780;2023-05-10T10:41:53;15.80;99.90
15930;DHT22;8064;51.142;4.780;2023-05-10T10:44:36;15.80;99.90
15930;DHT22;8064;51.142;4.780;2023-05-10T10:49:49;15.80;99.90
15930;DHT22;8064;51.142;4.780;2023-05-10T10:52:30;15.80;99.90
15930;DHT22;8064;51.142;4.780;2023-05-10T10:55:16;15.80;99.90
15930;DHT22;8064;51.142;4.780;2023-05-10T11:00:37;15.80;99.90
15930;DHT22;8064;51.142;4.780;2023-05-10T11:03:21;15.80;99.90
15930;DHT22;8064;51.142;4.780;2023-05-10T11:05:50;15.80;99.90
15930;DHT22;8064;51.142;4.780;2023-05-10T11:11:05;15.80;99.90
15930;DHT22;8064;51.142;4.780;2023-05-10T11:19:03;16.00;99.90
15930;DHT22;8064;51.142;4.780;2023-05-10T11:21:31;16.00;99.90
15930;DHT22;8064;51.142;4.780;2023-05-10T11:23:58;16.10;99.90
15930;DHT22;8064;51.142;4.780;2023-05-10T11:26:26;16.20;99.90
15930;DHT22;8064;51.142;4.780;2023-05-10T11:28:56;16.30;99.90
15930;DHT22;8064;51.142;4.780;2023-05-10T11:31:24;16.30;99.90
15930;DHT22;8064;51.142;4.780;2023-05-10T11:33:54;16.40;99.90
15930;DHT22;8064;51.142;4.780;2023-05-10T11:39:01;16.60;99.90
15930;DHT22;8064;51.142;4.780;2023-05-10T11:41:29;16.70;99.90
15930;DHT22;8064;51.142;4.780;2023-05-10T11:43:56;16.70;99.90
15930;DHT22;8064;51.142;4.780;2023-05-10T11:46:24;16.80;99.90
15930;DHT22;8064;51.142;4.780;2023-05-10T11:48:52;16.90;99.90
15930;DHT22;8064;51.142;4.780;2023-05-10T11:51:22;17.00;99.90
15930;DHT22;8064;51.142;4.780;2023-05-10T11:53:49;17.00;99.90
15930;DHT22;8064;51.142;4.780;2023-05-10T11:56:16;17.10;99.90
15930;DHT22;8064;51.142;4.780;2023-05-10T11:58:41;17.20;99.90
15930;DHT22;8064;51.142;4.780;2023-05-10T12:01:08;17.40;99.90
15930;DHT22;8064;51.142;4.780;2023-05-10T12:03:35;17.60;99.90
15930;DHT22;8064;51.142;4.780;2023-05-10T12:06:02;17.70;99.90
15930;DHT22;8064;51.142;4.780;2023-05-10T12:08:29;17.80;99.90
15930;DHT22;8064;51.142;4.780;2023-05-10T12:11:07;17.90;99.90
15930;DHT22;8064;51.142;4.780;2023-05-10T12:13:39;18.10;99.90
15930;DHT22;8064;51.142;4.780;2023-05-10T12:16:25;18.20;99.90
15930;DHT22;8064;51.142;4.780;2023-05-10T12:18:52;18.30;99.90
15930;DHT22;8064;51.142;4.780;2023-05-10T12:21:19;18.40;99.90
15930;DHT22;8064;51.142;4.780;2023-05-10T12:23:46;18.40;99.90
15930;DHT22;8064;51.142;4.780;2023-05-10T12:26:12;18.40;99.90
15930;DHT22;8064;51.142;4.780;2023-05-10T12:28:38;18.40;99.90
15930;DHT22;8064;51.142;4.780;2023-05-10T12:31:06;18.40;99.90
15930;DHT22;8064;51.142;4.780;2023-05-10T12:33:50;18.40;99.90
15930;DHT22;8064;51.142;4.780;2023-05-10T12:36:16;18.40;99.90
15930;DHT22;8064;51.142;4.780;2023-05-10T12:38:48;18.40;99.90
15930;DHT22;8064;51.142;4.780;2023-05-10T12:41:16;18.30;99.90
15930;DHT22;8064;51.142;4.780;2023-05-10T12:43:43;18.30;99.90
15930;DHT22;8064;51.142;4.780;2023-05-10T12:46:11;18.20;99.90
15930;DHT22;8064;51.142;4.780;2023-05-10T12:48:37;18.20;99.90
15930;DHT22;8064;51.142;4.780;2023-05-10T12:51:04;18.10;99.90
15930;DHT22;8064;51.142;4.780;2023-05-10T12:53:31;18.00;99.90
15930;DHT22;8064;51.142;4.780;2023-05-10T12:55:57;18.00;99.90
15930;DHT22;8064;51.142;4.780;2023-05-10T12:58:22;18.00;99.90
15930;DHT22;8064;51.142;4.780;2023-05-10T13:00:48;18.00;99.90
15930;DHT22;8064;51.142;4.780;2023-05-10T13:03:14;18.10;99.90
15930;DHT22;8064;51.142;4.780;2023-05-10T13:05:41;18.10;99.90
15930;DHT22;8064;51.142;4.780;2023-05-10T13:08:07;18.10;99.90
15930;DHT22;8064;51.142;4.780;2023-05-10T13:10:33;18.10;99.90
15930;DHT22;8064;51.142;4.780;2023-05-10T13:12:59;18.10;99.90
15930;DHT22;8064;51.142;4.780;2023-05-10T13:15:25;18.10;99.90
15930;DHT22;8064;51.142;4.780;2023-05-10T13:17:52;18.00;99.90
15930;DHT22;8064;51.142;4.780;2023-05-10T13:20:18;18.00;99.90
15930;DHT22;8064;51.142;4.780;2023-05-10T13:22:44;18.00;99.90
15930;DHT22;8064;51.142;4.780;2023-05-10T13:25:11;17.90;99.90
15930;DHT22;8064;51.142;4.780;2023-05-10T13:27:38;17.90;99.90
15930;DHT22;8064;51.142;4.780;2023-05-10T13:30:04;17.80;99.90
15930;DHT22;8064;51.142;4.780;2023-05-10T13:32:31;17.90;99.90
15930;DHT22;8064;51.142;4.780;2023-05-10T13:34:57;17.90;99.90
15930;DHT22;8064;51.142;4.780;2023-05-10T13:37:23;17.90;99.90
15930;DHT22;8064;51.142;4.780;2023-05-10T13:39:49;17.90;99.90
15930;DHT22;8064;51.142;4.780;2023-05-10T13:42:15;17.90;99.90
15930;DHT22;8064;51.142;4.780;2023-05-10T13:44:41;17.90;99.90
15930;DHT22;8064;51.142;4.780;2023-05-10T13:47:06;17.90;99.90
15930;DHT22;8064;51.142;4.780;2023-05-10T13:49:32;18.00;99.90
15930;DHT22;8064;51.142;4.780;2023-05-10T13:51:59;18.00;99.90
15930;DHT22;8064;51.142;4.780;2023-05-10T13:54:33;18.00;99.90
15930;DHT22;8064;51.142;4.780;2023-05-10T13:56:59;18.00;99.90
15930;DHT22;8064;51.142;4.780;2023-05-10T13:59:26;18.00;99.90
15930;DHT22;8064;51.142;4.780;2023-05-10T14:01:52;18.00;99.90
15930;DHT22;8064;51.142;4.780;2023-05-10T14:04:18;18.00;99.90
15930;DHT22;8064;51.142;4.780;2023-05-10T14:06:44;18.10;99.90
15930;DHT22;8064;51.142;4.780;2023-05-10T14:09:09;18.10;99.90
15930;DHT22;8064;51.142;4.780;2023-05-10T14:11:35;18.10;99.90
15930;DHT22;8064;51.142;4.780;2023-05-10T14:14:01;18.10;99.90
15930;DHT22;8064;51.142;4.780;2023-05-10T14:16:27;18.10;99.90
15930;DHT22;8064;51.142;4.780;2023-05-10T14:18:52;18.20;99.90
15930;DHT22;8064;51.142;4.780;2023-05-10T14:21:18;18.20;99.90
15930;DHT22;8064;51.142;4.780;2023-05-10T14:23:44;18.30;99.90
15930;DHT22;8064;51.142;4.780;2023-05-10T14:26:10;18.30;99.90
15930;DHT22;8064;51.142;4.780;2023-05-10T14:28:36;18.30;99.90
15930;DHT22;8064;51.142;4.780;2023-05-10T14:31:02;18.30;99.90
15930;DHT22;8064;51.142;4.780;2023-05-10T14:33:27;18.40;99.90
15930;DHT22;8064;51.142;4.780;2023-05-10T14:35:54;18.40;99.90
15930;DHT22;8064;51.142;4.780;2023-05-10T14:38:22;18.40;99.90
15930;DHT22;8064;51.142;4.780;2023-05-10T14:40:49;18.30;99.90
15930;DHT22;8064;51.142;4.780;2023-05-10T14:43:14;18.30;99.90
15930;DHT22;8064;51.142;4.780;2023-05-10T14:45:40;18.20;99.90
15930;DHT22;8064;51.142;4.780;2023-05-10T14:48:06;18.20;99.90
15930;DHT22;8064;51.142;4.780;2023-05-10T14:50:36;18.10;99.90
15930;DHT22;8064;51.142;4.780;2023-05-10T14:53:02;18.10;99.90
15930;DHT22;8064;51.142;4.780;2023-05-10T14:55:28;18.00;99.90
15930;DHT22;8064;51.142;4.780;2023-05-10T14:57:53;18.00;99.90
15930;DHT22;8064;51.142;4.780;2023-05-10T15:00:20;18.00;99.90
15930;DHT22;8064;51.142;4.780;2023-05-10T15:02:46;18.00;99.90
15930;DHT22;8064;51.142;4.780;2023-05-10T15:05:12;18.00;99.90
15930;DHT22;8064;51.142;4.780;2023-05-10T15:07:39;18.00;99.90
15930;DHT22;8064;51.142;4.780;2023-05-10T15:10:05;18.00;99.90
15930;DHT22;8064;51.142;4.780;2023-05-10T15:12:31;17.90;99.90
15930;DHT22;8064;51.142;4.780;2023-05-10T15:14:58;17.90;99.90
15930;DHT22;8064;51.142;4.780;2023-05-10T15:17:24;17.80;99.90
15930;DHT22;8064;51.142;4.780;2023-05-10T15:19:50;17.80;99.90
15930;DHT22;8064;51.142;4.780;2023-05-10T15:22:15;17.70;99.90
15930;DHT22;8064;51.142;4.780;2023-05-10T15:24:41;17.70;99.90
15930;DHT22;8064;51.142;4.780;2023-05-10T15:27:07;17.70;99.90
15930;DHT22;8064;51.142;4.780;2023-05-10T15:29:33;17.80;99.90
15930;DHT22;8064;51.142;4.780;2023-05-10T15:32:01;17.90;99.90
15930;DHT22;8064;51.142;4.780;2023-05-10T15:34:29;18.00;99.90
15930;DHT22;8064;51.142;4.780;2023-05-10T15:36:55;18.00;99.90
15930;DHT22;8064;51.142;4.780;2023-05-10T15:39:20;18.10;99.90
15930;DHT22;8064;51.142;4.780;2023-05-10T15:41:46;18.10;99.90
15930;DHT22;8064;51.142;4.780;2023-05-10T15:44:12;18.10;99.90
15930;DHT22;8064;51.142;4.780;2023-05-10T15:46:38;18.10;99.90
15930;DHT22;8064;51.142;4.780;2023-05-10T15:49:04;18.10;99.90
15930;DHT22;8064;51.142;4.780;2023-05-10T15:51:31;18.10;99.90
15930;DHT22;8064;51.142;4.780;2023-05-10T15:53:59;18.00;99.90
15930;DHT22;8064;51.142;4.780;2023-05-10T15:56:28;18.00;99.90
15930;DHT22;8064;51.142;4.780;2023-05-10T15:58:57;17.90;99.90
15930;DHT22;8064;51.142;4.780;2023-05-10T16:01:24;17.90;99.90
15930;DHT22;8064;51.142;4.780;2023-05-10T16:03:51;17.80;99.90
15930;DHT22;8064;51.142;4.780;2023-05-10T16:06:18;17.70;99.90
15930;DHT22;8064;51.142;4.780;2023-05-10T16:08:44;17.60;99.90
15930;DHT22;8064;51.142;4.780;2023-05-10T16:11:09;17.50;99.90
15930;DHT22;8064;51.142;4.780;2023-05-10T16:13:36;17.50;99.90
15930;DHT22;8064;51.142;4.780;2023-05-10T16:16:02;17.40;99.90
15930;DHT22;8064;51.142;4.780;2023-05-10T16:18:28;17.40;99.90
15930;DHT22;8064;51.142;4.780;2023-05-10T16:20:54;17.30;99.90
15930;DHT22;8064;51.142;4.780;2023-05-10T16:23:19;17.20;99.90
15930;DHT22;8064;51.142;4.780;2023-05-10T16:25:45;17.20;99.90